createdAt,value
2023-03-31T00:04:13.614Z,13.03
2023-03-31T00:09:19.477Z,13.01
2023-03-31T00:14:21.123Z,13.03
2023-03-31T00:19:22.529Z,13.02
2023-03-31T00:24:24.183Z,13.02
2023-03-31T00:29:26.428Z,13.00
2023-03-31T00:34:28.700Z,12.93
2023-03-31T00:39:35.632Z,12.88
2023-03-31T00:45:03.020Z,12.79
2023-03-31T00:50:06.386Z,12.83
2023-03-31T00:55:17.551Z,12.84
2023-03-31T01:00:19.998Z,12.78
2023-03-31T01:05:27.124Z,12.78
2023-03-31T01:10:33.010Z,12.71
2023-03-31T01:15:35.269Z,12.66
2023-03-31T01:20:42.657Z,12.64
2023-03-31T01:26:01.409Z,12.66
2023-03-31T01:31:15.430Z,12.63
2023-03-31T01:36:54.041Z,12.62
2023-03-31T01:42:51.080Z,12.55
2023-03-31T01:48:00.050Z,12.42
2023-03-31T01:53:11.118Z,12.46
2023-03-31T01:58:21.751Z,12.36
2023-03-31T02:03:33.607Z,12.34
2023-03-31T02:08:42.376Z,12.33
2023-03-31T02:13:47.733Z,12.30
2023-03-31T02:18:53.368Z,12.26
2023-03-31T02:23:55.577Z,12.21
2023-03-31T02:28:58.345Z,12.23
2023-03-31T02:34:01.770Z,12.24
2023-03-31T02:39:09.670Z,12.20
2023-03-31T02:44:13.362Z,12.23
2023-03-31T02:49:16.900Z,12.23
2023-03-31T02:54:32.149Z,12.24
2023-03-31T02:59:58.203Z,12.23
2023-03-31T03:05:28.634Z,12.20
2023-03-31T03:10:45.325Z,12.23
2023-03-31T03:15:55.261Z,12.23
2023-03-31T03:20:57.389Z,12.12
2023-03-31T03:25:58.901Z,12.08
2023-03-31T03:31:01.574Z,12.04
2023-03-31T03:36:03.206Z,12.09
2023-03-31T03:41:04.888Z,12.09
2023-03-31T03:46:06.848Z,12.10
2023-03-31T03:51:08.579Z,12.00
2023-03-31T03:56:12.805Z,12.08
2023-03-31T04:01:15.160Z,12.07
2023-03-31T04:06:16.640Z,12.06
2023-03-31T04:11:19.484Z,11.98
2023-03-31T04:16:23.630Z,12.02
2023-03-31T04:21:25.638Z,12.01
2023-03-31T04:26:43.551Z,11.98
2023-03-31T04:31:45.171Z,11.95
2023-03-31T04:36:48.224Z,11.93
2023-03-31T04:41:50.683Z,11.93
2023-03-31T04:46:52.292Z,11.94
2023-03-31T04:51:54.860Z,11.94
2023-03-31T04:56:56.288Z,12.00
2023-03-31T05:01:57.982Z,12.02
2023-03-31T05:06:59.744Z,11.98
2023-03-31T05:12:01.298Z,12.00
2023-03-31T05:17:03.360Z,12.02
2023-03-31T05:22:05.049Z,12.05
2023-03-31T05:27:06.587Z,12.08
2023-03-31T05:32:08.193Z,12.01
2023-03-31T05:37:11.055Z,11.90
2023-03-31T05:42:12.907Z,11.87
2023-03-31T05:47:14.442Z,11.82
2023-03-31T05:52:16.297Z,11.82
2023-03-31T05:57:19.665Z,11.77
2023-03-31T06:02:21.399Z,11.79
2023-03-31T06:07:24.968Z,11.82
2023-03-31T06:12:26.829Z,11.82
2023-03-31T06:17:28.641Z,11.80
2023-03-31T06:22:30.186Z,11.75
2023-03-31T06:27:31.947Z,11.75
2023-03-31T06:32:33.629Z,11.67
2023-03-31T06:37:35.514Z,11.78
2023-03-31T06:42:36.983Z,11.80
2023-03-31T06:47:39.180Z,11.77
2023-03-31T06:52:43.788Z,11.82
2023-03-31T06:57:45.901Z,11.82
2023-03-31T07:02:47.624Z,11.87
2023-03-31T07:07:49.589Z,11.84
2023-03-31T07:12:51.224Z,11.86
2023-03-31T07:18:02.487Z,11.87
2023-03-31T07:23:06.043Z,11.90
2023-03-31T07:28:09.213Z,11.89
2023-03-31T07:33:11.681Z,11.90
2023-03-31T07:38:13.571Z,11.93
2023-03-31T07:43:15.656Z,11.83
2023-03-31T07:48:17.082Z,11.52
2023-03-31T07:53:18.649Z,11.49
2023-03-31T07:58:20.346Z,11.58
2023-03-31T08:03:22.443Z,11.73
2023-03-31T08:08:23.928Z,11.77
2023-03-31T08:13:26.120Z,12.07
2023-03-31T08:18:27.639Z,12.06
2023-03-31T08:23:29.264Z,12.20
2023-03-31T08:28:30.984Z,12.36
2023-03-31T08:33:32.993Z,12.47
2023-03-31T08:38:40.011Z,12.98
2023-03-31T08:43:45.267Z,13.35
2023-03-31T08:48:52.305Z,12.96
2023-03-31T08:54:03.677Z,12.72
2023-03-31T08:59:07.133Z,12.57
2023-03-31T09:04:13.364Z,12.52
2023-03-31T09:09:27.969Z,12.62
2023-03-31T09:14:37.029Z,12.78
2023-03-31T09:19:52.624Z,12.92
2023-03-31T09:25:20.893Z,13.78
2023-03-31T09:30:30.283Z,13.96
2023-03-31T09:35:33.954Z,13.57
2023-03-31T09:40:35.618Z,13.52
2023-03-31T09:45:37.364Z,13.61
2023-03-31T09:50:47.787Z,14.28
2023-03-31T09:56:02.037Z,15.15
2023-03-31T10:01:07.005Z,15.74
2023-03-31T10:06:10.770Z,15.56
2023-03-31T10:11:13.492Z,15.28
2023-03-31T10:16:43.942Z,15.50
2023-03-31T10:21:47.432Z,14.89
2023-03-31T10:26:52.262Z,14.37
2023-03-31T10:31:54.321Z,13.74
2023-03-31T10:36:56.418Z,13.25
2023-03-31T10:41:58.151Z,12.44
2023-03-31T10:47:14.769Z,11.94
2023-03-31T10:52:25.922Z,11.88
2023-03-31T10:57:46.485Z,11.87
2023-03-31T11:03:06.472Z,11.93
2023-03-31T11:08:23.489Z,12.07
2023-03-31T11:13:51.571Z,12.51
2023-03-31T11:19:08.641Z,13.46
2023-03-31T11:24:26.279Z,14.80
2023-03-31T11:29:39.358Z,17.71
2023-03-31T11:35:06.145Z,16.87
2023-03-31T11:40:30.354Z,19.49
2023-03-31T11:45:41.759Z,19.58
2023-03-31T11:50:47.384Z,17.82
2023-03-31T11:55:53.968Z,17.04
2023-03-31T12:01:04.648Z,16.15
2023-03-31T12:06:17.302Z,15.36
2023-03-31T12:11:29.543Z,14.67
2023-03-31T12:16:41.655Z,14.30
2023-03-31T12:21:51.804Z,14.13
2023-03-31T12:27:00.140Z,14.55
2023-03-31T12:32:10.402Z,14.70
2023-03-31T12:37:51.316Z,14.24
2023-03-31T12:42:52.805Z,13.59
2023-03-31T12:48:24.250Z,13.39
2023-03-31T12:53:32.124Z,13.19
2023-03-31T12:58:39.129Z,13.29
2023-03-31T13:04:11.594Z,13.55
2023-03-31T13:09:13.054Z,13.44
2023-03-31T13:14:14.648Z,13.71
2023-03-31T13:19:36.604Z,15.03
2023-03-31T13:24:38.344Z,15.27
2023-03-31T13:29:45.340Z,14.96
2023-03-31T13:34:55.880Z,14.71
2023-03-31T13:39:57.619Z,14.56
2023-03-31T13:45:10.804Z,15.06
2023-03-31T13:50:36.528Z,15.43
2023-03-31T13:55:56.449Z,15.18
2023-03-31T14:01:11.418Z,15.25
2023-03-31T14:06:31.635Z,15.29
2023-03-31T14:11:36.028Z,15.47
2023-03-31T14:16:54.339Z,15.50
2023-03-31T14:22:04.632Z,15.52
2023-03-31T14:27:30.768Z,15.54
2023-03-31T14:33:06.142Z,15.55
2023-03-31T14:38:16.962Z,15.32
2023-03-31T14:43:22.010Z,15.17
2023-03-31T14:48:23.504Z,15.08
2023-03-31T14:53:28.282Z,14.81
2023-03-31T14:58:35.234Z,14.76
2023-03-31T15:03:41.690Z,14.61
2023-03-31T15:08:43.876Z,14.46
2023-03-31T15:14:00.842Z,14.47
2023-03-31T15:19:17.803Z,14.23
2023-03-31T15:24:19.657Z,13.83
2023-03-31T15:29:34.019Z,13.63
2023-03-31T15:34:36.809Z,13.49
2023-03-31T15:39:39.566Z,13.50
2023-03-31T15:44:47.007Z,13.47
2023-03-31T15:50:03.185Z,13.60
2023-03-31T15:55:23.504Z,13.60
2023-03-31T16:00:34.201Z,13.52
2023-03-31T16:05:54.553Z,13.36
2023-03-31T16:11:04.867Z,13.28
2023-03-31T16:16:15.276Z,13.30
2023-03-31T16:21:28.521Z,13.35
2023-03-31T16:26:30.457Z,13.29
2023-03-31T16:31:37.739Z,13.27
2023-03-31T16:36:39.540Z,13.08
2023-03-31T16:41:41.054Z,12.80
2023-03-31T16:46:42.535Z,12.80
2023-03-31T16:51:44.278Z,12.67
2023-03-31T16:56:48.077Z,12.53
2023-03-31T17:01:49.680Z,12.42
2023-03-31T17:06:52.611Z,12.45
2023-03-31T17:11:54.096Z,12.49
2023-03-31T17:16:56.497Z,12.40
2023-03-31T17:22:02.004Z,12.43
2023-03-31T17:27:03.439Z,12.34
2023-03-31T17:32:04.877Z,12.31
2023-03-31T17:37:07.170Z,12.28
2023-03-31T17:42:10.126Z,12.33
2023-03-31T17:47:12.073Z,12.27
2023-03-31T17:52:13.738Z,12.27
2023-03-31T17:57:15.468Z,12.22
2023-03-31T18:02:18.178Z,12.22
2023-03-31T18:07:20.505Z,12.19
2023-03-31T18:12:21.934Z,12.10
2023-03-31T18:17:25.318Z,12.11
2023-03-31T18:22:29.689Z,12.07
2023-03-31T18:27:31.658Z,11.97
2023-03-31T18:32:33.281Z,11.93
2023-03-31T18:37:37.675Z,11.93
2023-03-31T18:42:40.690Z,11.97
2023-03-31T18:47:42.188Z,11.92
2023-03-31T18:52:43.771Z,11.93
2023-03-31T18:57:45.167Z,11.92
2023-03-31T19:02:47.103Z,11.82
2023-03-31T19:07:48.802Z,11.78
2023-03-31T19:12:50.335Z,11.76
2023-03-31T19:17:52.244Z,11.81
2023-03-31T19:22:53.819Z,11.78
2023-03-31T19:27:56.658Z,11.73
2023-03-31T19:32:58.323Z,11.83
2023-03-31T19:37:59.842Z,11.80
2023-03-31T19:43:01.843Z,11.74
2023-03-31T19:48:03.561Z,11.68
2023-03-31T19:53:05.016Z,11.68
2023-03-31T19:58:06.864Z,11.72
2023-03-31T20:03:08.417Z,11.65
2023-03-31T20:08:11.091Z,11.63
2023-03-31T20:13:12.962Z,11.58
2023-03-31T20:18:14.735Z,11.55
2023-03-31T20:23:16.354Z,11.58
2023-03-31T20:28:17.771Z,11.54
2023-03-31T20:33:19.335Z,11.54
2023-03-31T20:38:21.174Z,11.55
2023-03-31T20:43:23.674Z,11.55
2023-03-31T20:48:25.494Z,11.58
2023-03-31T20:53:27.403Z,11.53
2023-03-31T20:58:29.113Z,11.56
2023-03-31T21:03:31.202Z,11.47
2023-03-31T21:08:33.243Z,11.42
2023-03-31T21:13:36.070Z,11.43
2023-03-31T21:18:38.323Z,11.43
2023-03-31T21:23:40.446Z,11.42
2023-03-31T21:28:44.203Z,11.39
2023-03-31T21:33:47.777Z,11.43
2023-03-31T21:38:50.163Z,11.39
2023-03-31T21:43:52.133Z,11.40
2023-03-31T21:48:54.103Z,11.34
2023-03-31T21:53:56.111Z,11.38
2023-03-31T21:58:57.644Z,11.42
2023-03-31T22:03:59.530Z,11.29
2023-03-31T22:09:01.292Z,11.28
2023-03-31T22:14:02.897Z,11.25
2023-03-31T22:19:05.683Z,11.29
2023-03-31T22:24:10.468Z,11.21
2023-03-31T22:29:15.931Z,11.12
2023-03-31T22:34:19.650Z,11.22
2023-03-31T22:39:21.127Z,11.22
2023-03-31T22:44:22.900Z,11.23
2023-03-31T22:49:24.366Z,11.21
2023-03-31T22:54:26.102Z,11.20
2023-03-31T22:59:27.682Z,11.15
2023-03-31T23:04:29.351Z,11.17
2023-03-31T23:09:31.203Z,11.17
2023-03-31T23:14:32.908Z,11.18
2023-03-31T23:19:34.514Z,11.21
2023-03-31T23:24:36.241Z,11.16
2023-03-31T23:29:38.000Z,11.10
2023-03-31T23:34:41.822Z,11.13
2023-03-31T23:39:43.459Z,11.07
2023-03-31T23:44:44.869Z,11.04
2023-03-31T23:49:46.574Z,11.06
2023-03-31T23:54:48.033Z,11.05
2023-03-31T23:59:50.746Z,11.06
